Time;durP1;ratioP1;P1;durP2;ratioP2;P2;SDS_P1;SDS_P2;PMS_P1;PMS_P2;Temp;Humidity;BMP_temperature;BMP_pressure;BME280_temperature;BME280_humidity;BME280_pressure;Samples;Min_cycle;Max_cycle;Signal;HPM_P1;HPM_P2
2023/11/04 00:02:19;;;;;;;12.98;3.88;;;6.70;99.90;;;;;;6230836;28;20041;-90
2023/11/04 00:05:21;;;;;;;12.38;4.03;;;6.60;99.90;;;;;;6224806;28;20065;-89
2023/11/04 00:08:22;;;;;;;11.30;4.03;;;6.60;99.90;;;;;;6248555;28;20053;-89
2023/11/04 00:11:25;;;;;;;15.40;4.28;;;6.70;99.90;;;;;;6224716;28;20516;-89
2023/11/04 00:14:27;;;;;;;16.17;4.60;;;6.60;99.90;;;;;;6214758;28;20078;-88
2023/11/04 00:17:28;;;;;;;15.10;3.70;;;6.50;99.90;;;;;;6230720;28;20085;-90
2023/11/04 00:20:30;;;;;;;11.70;3.55;;;6.50;99.90;;;;;;6224061;28;20121;-88
2023/11/04 00:23:46;;;;;;;13.18;3.75;;;6.40;99.90;;;;;;6223680;28;20058;-89
2023/11/04 00:26:47;;;;;;;9.23;3.10;;;6.50;99.90;;;;;;6241673;28;20077;-89
2023/11/04 00:29:49;;;;;;;9.65;3.17;;;6.50;99.90;;;;;;6244414;28;20065;-90
2023/11/04 00:32:50;;;;;;;12.50;3.00;;;6.70;99.90;;;;;;6217999;28;20049;-90
2023/11/04 00:35:52;;;;;;;13.88;3.03;;;6.40;99.90;;;;;;6252374;28;20084;-91
2023/11/04 00:38:54;;;;;;;9.90;2.90;;;6.50;99.90;;;;;;6207593;28;20081;-91
2023/11/04 00:41:55;;;;;;;16.65;3.35;;;6.40;99.90;;;;;;6248264;28;20077;-91
2023/11/04 00:44:57;;;;;;;12.20;2.85;;;6.40;99.90;;;;;;6234282;28;20057;-92
2023/11/04 00:47:59;;;;;;;16.23;3.40;;;6.40;99.90;;;;;;6229163;28;20088;-92
2023/11/04 00:51:01;;;;;;;12.52;3.20;;;6.40;99.90;;;;;;6235130;28;20060;-92
2023/11/04 00:54:03;;;;;;;11.82;3.05;;;6.30;99.90;;;;;;6210671;28;20132;-91
2023/11/04 00:57:05;;;;;;;14.75;3.00;;;6.30;99.90;;;;;;6234617;28;20612;-90
2023/11/04 01:00:07;;;;;;;11.68;2.92;;;6.30;99.90;;;;;;6224536;28;20464;-91
2023/11/04 01:03:09;;;;;;;13.35;3.45;;;6.20;99.90;;;;;;6251900;28;20488;-91
2023/11/04 01:06:10;;;;;;;15.38;3.50;;;6.30;99.90;;;;;;6228556;28;20049;-91
2023/11/04 01:09:15;;;;;;;12.90;3.20;;;6.20;99.90;;;;;;6234373;28;20058;-91
2023/11/04 01:12:17;;;;;;;17.88;3.67;;;6.20;99.90;;;;;;6227750;28;20050;-91
2023/11/04 01:15:19;;;;;;;11.68;3.65;;;6.30;99.90;;;;;;6233477;28;20053;-91
2023/11/04 01:18:20;;;;;;;14.30;3.75;;;6.30;99.90;;;;;;6228905;28;20465;-91
2023/11/04 01:21:22;;;;;;;12.75;3.80;;;6.40;99.90;;;;;;6234239;28;20065;-92
2023/11/04 01:24:24;;;;;;;16.38;3.63;;;6.30;99.90;;;;;;6209937;28;20046;-91
2023/11/04 01:27:25;;;;;;;9.63;3.45;;;6.30;99.90;;;;;;6249321;28;20045;-91
2023/11/04 01:30:27;;;;;;;12.05;3.28;;;6.40;99.90;;;;;;6223003;28;20062;-90
2023/11/04 01:33:28;;;;;;;15.25;4.28;;;6.40;99.90;;;;;;6230289;28;20078;-91
2023/11/04 01:36:30;;;;;;;14.13;4.40;;;6.40;99.90;;;;;;6227552;28;20050;-90
2023/11/04 01:39:32;;;;;;;16.15;4.13;;;6.40;99.90;;;;;;6233664;28;20045;-92
2023/11/04 01:42:34;;;;;;;11.75;3.65;;;6.40;99.90;;;;;;6235691;28;20057;-91
2023/11/04 01:45:35;;;;;;;11.73;3.78;;;6.40;99.90;;;;;;6223647;28;20054;-91
2023/11/04 01:48:37;;;;;;;15.93;4.13;;;6.40;99.90;;;;;;6250568;28;20531;-90
2023/11/04 01:51:39;;;;;;;10.13;3.40;;;6.30;99.90;;;;;;6209872;28;20050;-91
2023/11/04 01:54:40;;;;;;;13.93;3.90;;;6.30;99.90;;;;;;6250287;28;20049;-90
2023/11/04 01:57:43;;;;;;;15.07;3.58;;;6.30;99.90;;;;;;6208814;28;20052;-91
2023/11/04 02:00:45;;;;;;;8.90;3.33;;;6.20;99.90;;;;;;6248132;28;20666;-91
2023/11/04 02:03:47;;;;;;;13.68;3.55;;;6.20;99.90;;;;;;6226552;28;20058;-90
2023/11/04 02:06:48;;;;;;;10.07;3.75;;;6.20;99.90;;;;;;6241357;28;20090;-92
2023/11/04 02:09:50;;;;;;;10.50;3.65;;;6.10;99.90;;;;;;6249022;28;20060;-91
2023/11/04 02:12:52;;;;;;;12.85;3.53;;;6.00;99.90;;;;;;6227489;28;20157;-92
2023/11/04 02:15:54;;;;;;;12.20;3.17;;;6.00;99.90;;;;;;6247930;28;20061;-91
2023/11/04 02:18:55;;;;;;;7.93;2.72;;;5.80;99.90;;;;;;6226803;28;20049;-91
2023/11/04 02:21:57;;;;;;;13.23;3.65;;;5.80;99.90;;;;;;6250219;28;20582;-90
2023/11/04 02:24:59;;;;;;;12.32;2.95;;;5.80;99.90;;;;;;6224273;28;20060;-92
2023/11/04 02:28:00;;;;;;;11.45;3.08;;;5.80;99.90;;;;;;6232739;28;20054;-90
2023/11/04 02:31:02;;;;;;;13.82;3.15;;;5.70;99.90;;;;;;6228537;28;20052;-90
2023/11/04 02:34:04;;;;;;;10.45;3.00;;;5.70;99.90;;;;;;6225918;28;20050;-91
2023/11/04 02:37:06;;;;;;;13.30;3.08;;;5.60;99.90;;;;;;6245844;28;20046;-91
2023/11/04 02:40:10;;;;;;;11.55;3.10;;;5.50;99.90;;;;;;6254218;28;20060;-91
2023/11/04 02:43:12;;;;;;;10.05;2.92;;;5.50;99.90;;;;;;6227830;28;20508;-92
2023/11/04 02:46:14;;;;;;;11.43;3.10;;;5.50;99.90;;;;;;6212605;28;20394;-92
2023/11/04 02:49:15;;;;;;;8.52;3.00;;;5.60;99.90;;;;;;6249812;28;20064;-92
2023/11/04 02:52:17;;;;;;;8.13;2.80;;;5.50;99.90;;;;;;6261270;28;20049;-91
2023/11/04 02:55:19;;;;;;;6.00;2.30;;;5.50;99.90;;;;;;6220639;28;20069;-91
2023/11/04 02:58:20;;;;;;;8.38;3.10;;;5.40;99.90;;;;;;6246662;28;20440;-91
2023/11/04 03:01:23;;;;;;;14.25;3.03;;;5.40;99.90;;;;;;6220781;28;20066;-92
2023/11/04 03:04:25;;;;;;;8.30;2.65;;;5.50;99.90;;;;;;6244263;28;20056;-92
2023/11/04 03:07:27;;;;;;;8.43;2.88;;;5.50;99.90;;;;;;6311941;22;20144;-92
2023/11/04 03:10:30;;;;;;;13.82;2.80;;;5.40;99.90;;;;;;6197080;28;20570;-92
2023/11/04 03:13:32;;;;;;;8.38;2.38;;;5.30;99.90;;;;;;6212726;28;20092;-91
2023/11/04 03:16:34;;;;;;;7.57;2.63;;;5.30;99.90;;;;;;6197947;28;20061;-92
2023/11/04 03:19:36;;;;;;;12.10;2.50;;;5.20;99.90;;;;;;6221566;28;20050;-92
2023/11/04 03:22:38;;;;;;;10.90;2.75;;;5.10;99.90;;;;;;6198638;28;20058;-92
2023/11/04 03:25:39;;;;;;;6.50;2.17;;;5.00;99.90;;;;;;6239797;28;20053;-92
2023/11/04 03:28:41;;;;;;;9.10;2.40;;;5.00;99.90;;;;;;6204020;28;20053;-92
2023/11/04 03:31:43;;;;;;;9.85;2.47;;;5.20;99.90;;;;;;6197806;28;20067;-92
2023/11/04 03:34:44;;;;;;;8.65;2.63;;;5.10;99.90;;;;;;6223847;28;20057;-91
2023/11/04 03:37:46;;;;;;;9.02;2.40;;;5.10;99.90;;;;;;6200679;28;20093;-91
2023/11/04 03:40:48;;;;;;;8.52;2.35;;;5.00;99.90;;;;;;6230694;28;20050;-91
2023/11/04 03:43:50;;;;;;;11.38;2.35;;;5.00;99.90;;;;;;6213692;28;20060;-92
2023/11/04 03:46:54;;;;;;;11.57;2.42;;;5.00;99.90;;;;;;6212488;28;20047;-92
2023/11/04 03:49:56;;;;;;;11.85;2.38;;;5.00;99.90;;;;;;6233479;28;20077;-90
2023/11/04 03:52:57;;;;;;;13.38;2.72;;;5.00;99.90;;;;;;6218628;28;20042;-92
2023/11/04 03:55:59;;;;;;;9.25;2.00;;;5.00;99.90;;;;;;6248256;28;20245;-90
2023/11/04 03:59:00;;;;;;;13.25;2.58;;;5.10;99.90;;;;;;6233056;28;20050;-90
2023/11/04 04:02:02;;;;;;;11.32;2.67;;;5.20;99.90;;;;;;6226861;28;20035;-91
2023/11/04 04:05:04;;;;;;;14.70;3.03;;;5.40;99.90;;;;;;6240676;28;20057;-91
2023/11/04 04:08:06;;;;;;;15.05;2.97;;;5.50;99.90;;;;;;6222129;28;20042;-91
2023/11/04 04:11:09;;;;;;;9.98;2.92;;;5.50;99.90;;;;;;6236375;28;20058;-90
2023/11/04 04:14:11;;;;;;;16.13;3.40;;;5.60;99.90;;;;;;6226374;28;20054;-90
2023/11/04 04:17:13;;;;;;;12.50;2.67;;;5.80;99.90;;;;;;6222503;28;20046;-90
2023/11/04 04:20:17;;;;;;;14.25;3.08;;;5.90;99.90;;;;;;6247175;28;20050;-90
2023/11/04 04:23:18;;;;;;;8.02;3.00;;;6.00;99.90;;;;;;6229309;28;20044;-90
2023/11/04 04:26:20;;;;;;;12.18;2.80;;;6.20;99.90;;;;;;6253904;28;20057;-90
2023/11/04 04:29:23;;;;;;;10.15;2.88;;;6.20;99.90;;;;;;6242590;28;20115;-91
2023/11/04 04:32:25;;;;;;;13.23;2.92;;;6.20;99.90;;;;;;6220975;28;20050;-89
2023/11/04 04:35:28;;;;;;;16.27;3.38;;;6.20;99.90;;;;;;6240484;28;20065;-90
2023/11/04 04:38:30;;;;;;;12.27;3.10;;;6.10;99.90;;;;;;6201971;28;20050;-90
2023/11/04 04:41:31;;;;;;;10.70;3.25;;;6.10;99.90;;;;;;6223040;28;20061;-90
2023/11/04 04:44:33;;;;;;;9.52;2.88;;;6.10;99.90;;;;;;6215360;28;20062;-90
2023/11/04 04:47:38;;;;;;;12.02;3.15;;;6.10;99.90;;;;;;6201817;28;20054;-91
2023/11/04 04:50:41;;;;;;;13.88;2.97;;;6.10;99.90;;;;;;6224478;28;20058;-90
2023/11/04 04:53:43;;;;;;;9.13;2.47;;;6.30;99.90;;;;;;6200365;28;20517;-91
2023/11/04 04:56:46;;;;;;;12.70;3.25;;;6.10;99.90;;;;;;6223775;28;20060;-91
2023/11/04 04:59:47;;;;;;;12.57;3.30;;;6.10;99.90;;;;;;6206123;28;20065;-90
2023/11/04 05:02:49;;;;;;;11.18;2.78;;;6.20;99.90;;;;;;6199291;28;20365;-89
2023/11/04 05:05:51;;;;;;;8.98;2.40;;;6.30;99.90;;;;;;6221954;28;20421;-89
2023/11/04 05:08:52;;;;;;;10.05;2.80;;;6.40;99.90;;;;;;6225527;28;20058;-90
2023/11/04 05:11:54;;;;;;;14.70;2.90;;;6.40;99.90;;;;;;6225738;28;20049;-91
2023/11/04 05:14:56;;;;;;;10.50;2.45;;;6.50;99.90;;;;;;6196756;28;20054;-89
2023/11/04 05:17:57;;;;;;;7.60;2.78;;;6.60;99.90;;;;;;6224919;28;20049;-90
2023/11/04 05:20:59;;;;;;;13.15;2.92;;;6.70;99.90;;;;;;6202012;28;20047;-89
2023/11/04 05:24:01;;;;;;;12.52;2.70;;;6.70;99.90;;;;;;6222673;28;20050;-89
2023/11/04 05:27:02;;;;;;;9.63;2.45;;;6.80;99.90;;;;;;6200606;28;20076;-89
2023/11/04 05:30:06;;;;;;;11.05;2.88;;;6.90;99.90;;;;;;6221020;28;20046;-89
2023/11/04 05:33:09;;;;;;;12.38;2.40;;;6.90;99.90;;;;;;6199841;28;20069;-90
2023/11/04 05:36:11;;;;;;;12.68;2.60;;;7.10;99.90;;;;;;6229260;28;20058;-90
2023/11/04 05:39:13;;;;;;;9.15;2.20;;;7.00;99.90;;;;;;6203185;28;20054;-89
2023/11/04 05:42:14;;;;;;;10.88;2.33;;;7.00;99.90;;;;;;6228134;28;20050;-91
2023/11/04 05:45:16;;;;;;;8.40;2.40;;;7.10;99.90;;;;;;6208594;28;20051;-91
2023/11/04 05:48:21;;;;;;;9.63;2.03;;;7.10;99.90;;;;;;6226783;28;20053;-90
2023/11/04 05:51:24;;;;;;;6.93;2.25;;;7.20;99.90;;;;;;6203356;28;20061;-89
2023/11/04 05:54:25;;;;;;;6.95;2.40;;;7.20;99.90;;;;;;6227740;28;20057;-90
2023/11/04 05:57:27;;;;;;;7.20;2.10;;;7.30;99.90;;;;;;6203777;28;20133;-90
2023/11/04 06:00:29;;;;;;;8.07;2.17;;;7.40;99.90;;;;;;6224113;28;20053;-89
2023/11/04 06:03:30;;;;;;;11.98;2.00;;;7.50;99.90;;;;;;6202712;28;20394;-89
2023/11/04 06:06:32;;;;;;;7.15;2.10;;;7.60;99.90;;;;;;6223760;28;20045;-92
2023/11/04 06:09:34;;;;;;;9.98;2.10;;;7.60;99.90;;;;;;6226008;28;20045;-90
2023/11/04 06:12:36;;;;;;;11.85;2.33;;;7.70;99.90;;;;;;6203615;28;20057;-90
2023/11/04 06:15:38;;;;;;;4.80;2.08;;;7.70;99.90;;;;;;6225207;28;20061;-92
2023/11/04 06:18:39;;;;;;;11.18;2.38;;;7.70;99.90;;;;;;6205115;28;20053;-92
2023/11/04 06:21:48;;;;;;;12.82;2.60;;;7.70;99.90;;;;;;6205141;28;20062;-92
2023/11/04 06:24:52;;;;;;;12.45;2.75;;;7.70;99.90;;;;;;6230690;28;20050;-90
2023/11/04 06:27:54;;;;;;;10.60;2.63;;;7.80;99.90;;;;;;6211751;28;20056;-90
2023/11/04 06:30:56;;;;;;;7.85;2.03;;;7.80;99.90;;;;;;6240446;28;20092;-92
2023/11/04 06:33:58;;;;;;;9.27;2.10;;;7.80;99.90;;;;;;6241329;28;20050;-91
2023/11/04 06:37:02;;;;;;;11.07;2.45;;;7.90;99.90;;;;;;6240918;28;20041;-92
2023/11/04 06:40:06;;;;;;;7.30;2.30;;;7.80;99.90;;;;;;6241433;28;20061;-93
2023/11/04 06:43:07;;;;;;;8.95;2.00;;;7.80;99.90;;;;;;6225306;28;20133;-94
2023/11/04 06:46:09;;;;;;;12.73;2.42;;;7.90;99.90;;;;;;6223342;28;20543;-92
2023/11/04 06:49:11;;;;;;;12.18;2.60;;;7.90;99.90;;;;;;6224927;28;20058;-90
2023/11/04 06:52:13;;;;;;;14.23;2.47;;;8.00;99.90;;;;;;6225290;28;20050;-90
2023/11/04 06:55:14;;;;;;;12.40;2.38;;;8.00;99.90;;;;;;6211085;28;20051;-90
2023/11/04 06:58:16;;;;;;;10.38;1.83;;;8.10;99.90;;;;;;6219342;28;20066;-90
2023/11/04 07:01:17;;;;;;;12.50;2.00;;;8.20;99.90;;;;;;6198903;28;20057;-87
2023/11/04 07:04:19;;;;;;;9.80;1.60;;;8.40;99.90;;;;;;6197025;28;20055;-86
2023/11/04 07:07:21;;;;;;;10.25;1.38;;;8.40;99.90;;;;;;6234277;28;20069;-86
2023/11/04 07:10:24;;;;;;;8.60;1.83;;;8.40;99.90;;;;;;6196393;28;20058;-84
2023/11/04 07:13:25;;;;;;;11.45;1.50;;;8.40;99.90;;;;;;6211157;28;20096;-84
2023/11/04 07:16:27;;;;;;;10.93;1.73;;;8.50;99.90;;;;;;6196638;28;20057;-86
2023/11/04 07:19:29;;;;;;;12.10;1.92;;;8.50;99.90;;;;;;6219139;28;20420;-84
2023/11/04 07:22:31;;;;;;;8.50;1.25;;;8.40;99.90;;;;;;6195957;28;20088;-85
2023/11/04 07:25:32;;;;;;;7.85;1.60;;;8.40;99.90;;;;;;6234539;28;20053;-84
2023/11/04 07:28:35;;;;;;;7.60;1.50;;;8.40;99.90;;;;;;6199579;28;20041;-84
2023/11/04 07:31:38;;;;;;;7.30;1.60;;;8.40;99.90;;;;;;6234810;28;20065;-85
2023/11/04 07:34:40;;;;;;;10.95;1.50;;;8.40;99.90;;;;;;6211497;28;20046;-85
2023/11/04 07:37:42;;;;;;;7.05;1.30;;;8.40;99.90;;;;;;6234895;28;20053;-85
2023/11/04 07:40:44;;;;;;;9.80;1.00;;;8.40;99.90;;;;;;6211163;28;20050;-85
2023/11/04 07:43:45;;;;;;;3.97;0.70;;;8.40;99.90;;;;;;6223623;28;20054;-85
2023/11/04 07:46:47;;;;;;;4.95;1.02;;;8.40;99.90;;;;;;6214713;28;20061;-84
2023/11/04 07:49:49;;;;;;;7.97;1.25;;;8.30;99.90;;;;;;6233869;28;20050;-84
2023/11/04 07:52:50;;;;;;;7.78;1.27;;;8.30;99.90;;;;;;6195816;28;20054;-86
2023/11/04 07:55:59;;;;;;;5.03;1.23;;;8.20;99.90;;;;;;6200120;28;20054;-84
2023/11/04 07:59:01;;;;;;;5.60;0.80;;;8.20;99.90;;;;;;6236737;28;20054;-85
2023/11/04 08:02:02;;;;;;;2.97;0.63;;;8.10;99.90;;;;;;6199053;28;20054;-85
2023/11/04 08:05:04;;;;;;;4.50;0.70;;;8.20;99.90;;;;;;6224658;28;20424;-85
2023/11/04 08:08:06;;;;;;;2.92;0.70;;;8.10;99.90;;;;;;6213720;28;20053;-84
2023/11/04 08:11:08;;;;;;;4.72;1.00;;;8.20;99.90;;;;;;6199823;28;20077;-87
2023/11/04 08:14:10;;;;;;;6.38;0.85;;;8.20;99.90;;;;;;6215542;28;20054;-90
2023/11/04 08:17:11;;;;;;;4.03;0.88;;;8.20;99.90;;;;;;6234358;28;20080;-90
2023/11/04 08:20:13;;;;;;;7.53;1.50;;;8.40;99.90;;;;;;6212566;28;20047;-87
2023/11/04 08:23:15;;;;;;;3.28;0.70;;;8.40;99.90;;;;;;6232985;28;20500;-88
2023/11/04 08:26:16;;;;;;;4.78;0.90;;;8.50;99.90;;;;;;6215817;28;20054;-90
2023/11/04 08:29:18;;;;;;;2.85;0.70;;;8.50;99.90;;;;;;6227095;28;20046;-92
2023/11/04 08:32:20;;;;;;;3.95;0.80;;;8.50;99.90;;;;;;6235179;28;20065;-89
2023/11/04 08:35:22;;;;;;;3.40;0.60;;;8.50;99.90;;;;;;6204192;28;20050;-85
2023/11/04 08:38:24;;;;;;;3.58;0.60;;;8.50;99.90;;;;;;6229994;28;20100;-92
2023/11/04 08:41:26;;;;;;;3.00;0.50;;;8.50;99.90;;;;;;6200993;28;20050;-86
2023/11/04 08:44:28;;;;;;;2.40;0.57;;;8.60;99.90;;;;;;6207672;28;20057;-86
2023/11/04 08:47:30;;;;;;;5.50;0.80;;;8.70;99.90;;;;;;6225187;28;20053;-85
2023/11/04 08:50:32;;;;;;;2.30;0.65;;;8.80;99.90;;;;;;6200160;28;20112;-86
2023/11/04 08:53:34;;;;;;;4.50;0.65;;;8.80;99.90;;;;;;6223997;28;20053;-84
2023/11/04 08:56:35;;;;;;;3.38;0.95;;;9.00;99.90;;;;;;6197669;28;20054;-84
2023/11/04 08:59:37;;;;;;;3.75;0.70;;;9.10;99.90;;;;;;6205231;28;20047;-84
2023/11/04 09:02:39;;;;;;;4.30;0.73;;;9.10;99.90;;;;;;6222347;28;20053;-86
2023/11/04 09:05:40;;;;;;;3.10;1.02;;;9.10;99.90;;;;;;6197534;28;20374;-83
2023/11/04 09:08:43;;;;;;;3.00;0.70;;;9.10;99.90;;;;;;6221880;28;20077;-84
2023/11/04 09:11:44;;;;;;;2.65;0.60;;;9.10;99.90;;;;;;6203142;28;20062;-86
2023/11/04 09:14:46;;;;;;;2.95;0.77;;;9.20;99.90;;;;;;6220744;28;20057;-87
2023/11/04 09:17:47;;;;;;;2.33;0.70;;;9.20;99.90;;;;;;6201040;28;20050;-84
2023/11/04 09:20:50;;;;;;;7.30;0.77;;;9.10;99.90;;;;;;6223387;28;20046;-88
2023/11/04 09:23:52;;;;;;;5.82;0.80;;;9.10;99.90;;;;;;6202704;28;20054;-89
2023/11/04 09:26:53;;;;;;;2.17;0.65;;;9.00;99.90;;;;;;6225528;28;20045;-86
2023/11/04 09:29:55;;;;;;;4.22;0.80;;;9.00;99.90;;;;;;6202541;28;20066;-83
2023/11/04 09:32:57;;;;;;;4.32;0.70;;;8.90;99.90;;;;;;6222572;28;20045;-86
2023/11/04 09:35:59;;;;;;;4.13;0.80;;;9.00;99.90;;;;;;6199063;28;20054;-84
2023/11/04 09:39:01;;;;;;;4.70;0.73;;;9.10;99.90;;;;;;6222504;28;20099;-84
2023/11/04 09:42:03;;;;;;;2.65;0.70;;;9.10;99.90;;;;;;6199747;28;20513;-87
2023/11/04 09:45:05;;;;;;;3.25;0.57;;;9.30;99.90;;;;;;6216325;28;20129;-86
2023/11/04 09:48:06;;;;;;;2.97;0.60;;;9.40;99.90;;;;;;6221861;28;20520;-84
2023/11/04 09:51:08;;;;;;;2.10;0.52;;;9.50;99.90;;;;;;6221483;28;20121;-86
2023/11/04 09:54:13;;;;;;;1.25;0.40;;;9.60;99.90;;;;;;6223051;28;20058;-87
2023/11/04 09:57:15;;;;;;;2.17;0.32;;;9.60;99.90;;;;;;6198883;28;20086;-86
2023/11/04 10:00:16;;;;;;;0.52;0.30;;;9.60;99.90;;;;;;6221802;28;20058;-83
2023/11/04 10:03:19;;;;;;;1.98;0.50;;;9.60;99.90;;;;;;6197096;28;20054;-86
2023/11/04 10:06:22;;;;;;;1.83;0.40;;;9.60;99.90;;;;;;6220422;28;20233;-84
2023/11/04 10:09:24;;;;;;;0.55;0.30;;;9.60;99.90;;;;;;6196484;28;20065;-83
2023/11/04 10:12:25;;;;;;;2.22;0.40;;;9.60;99.90;;;;;;6221670;28;20065;-84
2023/11/04 10:15:27;;;;;;;1.00;0.32;;;9.70;99.90;;;;;;6196492;28;20351;-84
2023/11/04 10:18:29;;;;;;;1.35;0.30;;;9.70;99.90;;;;;;6220467;28;20054;-84
2023/11/04 10:21:30;;;;;;;0.57;0.30;;;9.70;99.90;;;;;;6197652;28;20069;-85
2023/11/04 10:24:32;;;;;;;1.52;0.40;;;9.70;99.90;;;;;;6221688;28;20064;-85
2023/11/04 10:27:34;;;;;;;1.20;0.40;;;9.80;99.90;;;;;;6199444;28;20065;-85
2023/11/04 10:30:37;;;;;;;2.40;0.50;;;9.70;99.90;;;;;;6230709;28;20105;-86
2023/11/04 10:33:39;;;;;;;1.08;0.40;;;9.80;99.90;;;;;;6214482;28;20126;-86
2023/11/04 10:36:40;;;;;;;2.08;0.52;;;9.90;99.90;;;;;;6246599;28;20080;-87
2023/11/04 10:39:43;;;;;;;0.70;0.40;;;11.20;99.90;;;;;;6218110;28;20054;-86
2023/11/04 10:42:44;;;;;;;4.45;0.52;;;12.30;99.90;;;;;;6231606;28;20061;-86
2023/11/04 10:45:46;;;;;;;5.53;0.70;;;12.90;99.90;;;;;;6215765;28;20049;-88
2023/11/04 10:48:48;;;;;;;3.63;0.80;;;13.60;98.90;;;;;;6224850;28;20085;-85
2023/11/04 10:51:49;;;;;;;4.43;1.05;;;14.30;99.90;;;;;;6199505;28;20196;-88
2023/11/04 10:54:51;;;;;;;2.65;0.70;;;14.40;95.30;;;;;;6226642;28;20053;-88
2023/11/04 10:57:53;;;;;;;4.63;0.90;;;14.80;94.20;;;;;;6205812;28;20173;-88
2023/11/04 11:00:55;;;;;;;2.67;0.80;;;15.30;95.80;;;;;;6223644;28;20062;-86
2023/11/04 11:03:57;;;;;;;6.45;1.10;;;15.60;94.60;;;;;;6218468;28;20137;-88
2023/11/04 11:06:58;;;;;;;5.82;1.17;;;15.90;92.50;;;;;;6235194;28;20082;-90
2023/11/04 11:10:00;;;;;;;5.60;1.17;;;16.40;90.30;;;;;;6222735;28;20042;-87
2023/11/04 11:13:03;;;;;;;8.23;1.75;;;15.80;86.70;;;;;;6218258;28;20141;-91
2023/11/04 11:16:06;;;;;;;6.43;1.33;;;15.60;94.60;;;;;;6222187;28;20049;-89
2023/11/04 11:19:08;;;;;;;8.15;1.63;;;15.50;90.10;;;;;;6216136;28;20195;-87
2023/11/04 11:22:09;;;;;;;5.93;1.38;;;16.20;91.50;;;;;;6224073;28;20056;-90
2023/11/04 11:25:11;;;;;;;8.07;1.45;;;16.10;76.50;;;;;;6210377;28;20061;-90
2023/11/04 11:28:13;;;;;;;10.80;1.73;;;16.20;82.70;;;;;;6218916;28;20054;-88
2023/11/04 11:31:15;;;;;;;10.52;1.73;;;15.90;91.00;;;;;;6198344;28;20185;-90
2023/11/04 11:34:18;;;;;;;8.32;2.10;;;15.70;76.70;;;;;;6200195;28;20062;-89
2023/11/04 11:37:20;;;;;;;10.27;1.95;;;15.40;91.90;;;;;;6224600;28;20050;-90
2023/11/04 11:40:22;;;;;;;12.82;2.38;;;14.70;90.00;;;;;;6200287;28;20073;-89
2023/11/04 11:43:24;;;;;;;10.25;2.00;;;14.30;93.10;;;;;;6216471;28;20069;-91
2023/11/04 11:46:27;;;;;;;11.60;1.95;;;14.60;93.10;;;;;;6212550;28;20061;-89
2023/11/04 11:49:29;;;;;;;10.00;1.88;;;15.30;90.10;;;;;;6226447;28;20061;-92
2023/11/04 11:52:31;;;;;;;11.75;1.98;;;15.80;90.70;;;;;;6224206;28;20157;-90
2023/11/04 11:55:32;;;;;;;12.07;1.77;;;15.30;80.80;;;;;;6203127;28;20053;-88
2023/11/04 11:58:37;;;;;;;13.05;2.03;;;14.50;85.90;;;;;;6215846;28;20137;-90
2023/11/04 12:01:40;;;;;;;10.48;1.50;;;14.00;90.10;;;;;;6198964;28;20058;-87
2023/11/04 12:04:42;;;;;;;11.48;1.85;;;14.30;92.50;;;;;;6221497;28;20053;-86
2023/11/04 12:07:45;;;;;;;9.52;2.10;;;15.30;83.30;;;;;;6209819;28;20062;-93
2023/11/04 12:10:47;;;;;;;14.80;2.85;;;16.00;74.10;;;;;;6208044;28;20038;-92
2023/11/04 12:13:49;;;;;;;7.22;1.40;;;16.30;54.30;;;;;;6217144;28;20115;-89
2023/11/04 12:16:51;;;;;;;8.90;1.98;;;16.50;65.70;;;;;;6226251;28;20068;-92
2023/11/04 12:19:52;;;;;;;9.57;1.75;;;16.60;37.30;;;;;;6199579;28;20062;-92
2023/11/04 12:22:54;;;;;;;8.43;1.92;;;16.70;25.10;;;;;;6224495;28;20061;-90
2023/11/04 12:25:56;;;;;;;11.30;2.33;;;17.00;55.00;;;;;;6199809;28;20188;-91
2023/11/04 12:28:58;;;;;;;10.38;1.77;;;16.60;33.70;;;;;;6213421;28;20082;-89
2023/11/04 12:32:02;;;;;;;12.00;1.80;;;15.50;56.20;;;;;;6236139;28;20050;-91
2023/11/04 12:35:04;;;;;;;9.20;1.80;;;14.70;69.20;;;;;;6201723;28;20046;-89
2023/11/04 12:38:05;;;;;;;12.65;1.73;;;14.20;77.20;;;;;;6220310;28;20061;-89
2023/11/04 12:41:09;;;;;;;11.85;1.85;;;14.00;84.40;;;;;;6198286;28;20055;-89
2023/11/04 12:44:11;;;;;;;9.63;1.55;;;14.10;83.70;;;;;;6214199;28;20058;-91
2023/11/04 12:47:13;;;;;;;8.90;1.67;;;15.00;80.40;;;;;;6223957;28;20056;-92
2023/11/04 12:50:14;;;;;;;10.35;1.52;;;15.80;56.40;;;;;;6204671;28;20050;-89
2023/11/04 12:53:18;;;;;;;5.95;1.65;;;16.30;31.10;;;;;;6227346;28;20077;-90
2023/11/04 12:56:19;;;;;;;9.00;1.60;;;16.40;41.90;;;;;;6208380;28;20054;-90
2023/11/04 12:59:23;;;;;;;9.98;1.60;;;16.00;49.00;;;;;;6215964;28;20058;-91
2023/11/04 13:02:25;;;;;;;9.73;1.92;;;15.20;49.50;;;;;;6232956;28;20065;-93
2023/11/04 13:05:27;;;;;;;11.65;1.92;;;14.50;66.10;;;;;;6216537;28;20054;-86
2023/11/04 13:08:29;;;;;;;12.55;2.17;;;14.20;77.40;;;;;;6242249;28;20127;-91
2023/11/04 13:11:31;;;;;;;13.60;1.85;;;13.80;79.80;;;;;;6223158;28;20050;-93
2023/11/04 13:14:32;;;;;;;11.93;2.33;;;13.60;86.60;;;;;;6223562;28;20058;-91
2023/11/04 13:17:34;;;;;;;11.10;2.45;;;13.50;89.40;;;;;;6244373;28;20053;-92
2023/11/04 13:20:36;;;;;;;13.55;2.28;;;13.60;84.90;;;;;;6217951;28;20100;-90
2023/11/04 13:23:38;;;;;;;13.75;1.67;;;14.40;73.40;;;;;;6233484;28;20049;-90
2023/11/04 13:26:39;;;;;;;9.82;1.98;;;14.10;68.60;;;;;;6207525;28;20067;-90
2023/11/04 13:29:41;;;;;;;10.75;2.67;;;13.60;79.90;;;;;;6206998;28;20053;-90
2023/11/04 13:32:42;;;;;;;11.38;1.70;;;13.30;82.00;;;;;;6226315;28;20050;-90
2023/11/04 13:35:45;;;;;;;11.98;1.60;;;13.20;88.90;;;;;;6205000;28;20050;-88
2023/11/04 13:38:47;;;;;;;10.43;1.90;;;12.90;88.70;;;;;;6230800;28;20096;-91
2023/11/04 13:41:57;;;;;;;9.95;1.85;;;12.80;90.20;;;;;;6206288;28;20069;-91
2023/11/04 13:45:00;;;;;;;13.85;2.50;;;12.60;91.50;;;;;;6228461;28;20046;-91
2023/11/04 13:48:03;;;;;;;9.35;2.20;;;12.50;91.70;;;;;;6231671;28;20061;-91
2023/11/04 13:51:06;;;;;;;10.10;2.05;;;12.50;92.90;;;;;;6230105;28;20117;-93
2023/11/04 13:57:25;;;;;;;9.73;1.88;;;12.50;92.20;;;;;;6571733;22;20430;-91
2023/11/04 14:00:27;;;;;;;12.13;2.10;;;12.50;91.00;;;;;;6258918;28;20053;-92
2023/11/04 14:03:31;;;;;;;11.18;2.22;;;12.50;90.80;;;;;;6261147;28;20195;-92
2023/11/04 14:06:32;;;;;;;11.20;2.28;;;12.60;88.50;;;;;;6277876;28;20103;-88
2023/11/04 14:09:35;;;;;;;7.97;1.70;;;12.60;88.00;;;;;;6277921;28;20055;-88
2023/11/04 14:12:37;;;;;;;6.95;1.60;;;12.60;88.50;;;;;;6276462;28;20045;-87
2023/11/04 14:15:39;;;;;;;10.52;1.70;;;12.70;88.90;;;;;;6276599;28;20052;-93
2023/11/04 14:18:40;;;;;;;10.70;1.67;;;12.50;86.20;;;;;;6277299;28;20052;-88
2023/11/04 14:21:42;;;;;;;9.55;1.67;;;12.30;88.30;;;;;;6258019;28;20102;-88
2023/11/04 14:24:44;;;;;;;7.68;1.50;;;12.20;91.30;;;;;;6276082;28;20056;-90
2023/11/04 14:27:46;;;;;;;15.32;2.10;;;12.10;91.60;;;;;;6276594;28;20725;-87
2023/11/04 14:30:47;;;;;;;10.55;1.80;;;12.20;91.50;;;;;;6262575;28;20049;-89
2023/11/04 14:33:49;;;;;;;7.70;2.28;;;12.40;90.50;;;;;;6246321;28;20053;-89
2023/11/04 14:36:51;;;;;;;7.28;1.55;;;12.50;88.70;;;;;;6290506;28;20053;-90
2023/11/04 14:39:52;;;;;;;10.90;1.80;;;12.60;88.80;;;;;;6293226;28;20068;-87
2023/11/04 14:42:54;;;;;;;6.22;1.35;;;12.60;89.20;;;;;;6276155;28;20063;-86
2023/11/04 14:45:56;;;;;;;5.95;1.08;;;12.70;88.30;;;;;;6276927;28;20072;-85
2023/11/04 14:48:57;;;;;;;6.53;1.35;;;12.80;88.60;;;;;;6238419;28;20480;-90
2023/11/04 14:51:59;;;;;;;15.20;2.20;;;12.80;88.60;;;;;;6276557;28;20140;-88
2023/11/04 14:55:01;;;;;;;7.65;1.88;;;12.70;87.40;;;;;;6275378;28;20405;-89
2023/11/04 14:58:03;;;;;;;9.43;1.98;;;12.70;90.00;;;;;;6258530;28;20504;-85
2023/11/04 15:01:05;;;;;;;11.32;1.90;;;12.70;90.80;;;;;;6277975;28;20049;-86
2023/11/04 15:04:08;;;;;;;10.05;1.90;;;12.70;88.70;;;;;;6249568;28;20060;-90
2023/11/04 15:07:10;;;;;;;12.75;1.50;;;12.50;90.20;;;;;;6275699;28;20060;-90
2023/11/04 15:10:12;;;;;;;18.15;2.67;;;12.30;90.60;;;;;;6274730;28;20059;-89
2023/11/04 15:13:14;;;;;;;12.23;2.40;;;12.10;91.60;;;;;;6271001;28;20055;-91
2023/11/04 15:16:15;;;;;;;15.15;2.70;;;11.90;92.40;;;;;;6274662;28;20485;-88
2023/11/04 15:19:17;;;;;;;15.80;4.10;;;11.80;93.30;;;;;;6274564;28;20053;-89
2023/11/04 15:22:19;;;;;;;16.73;2.85;;;11.70;93.80;;;;;;6275049;28;20045;-90
2023/11/04 15:25:20;;;;;;;20.90;3.00;;;11.70;94.10;;;;;;6258723;28;20064;-89
2023/11/04 15:28:24;;;;;;;21.40;2.67;;;11.60;94.70;;;;;;6274853;28;20049;-91
2023/11/04 15:31:26;;;;;;;14.10;3.22;;;11.50;95.30;;;;;;6260560;28;20052;-93
2023/11/04 15:34:27;;;;;;;11.40;2.28;;;11.40;95.10;;;;;;6274402;28;20049;-88
2023/11/04 15:37:29;;;;;;;18.40;3.08;;;11.50;95.30;;;;;;6258033;28;20055;-92
2023/11/04 15:40:31;;;;;;;17.95;2.67;;;11.50;95.60;;;;;;6274251;28;20045;-89
2023/11/04 15:43:33;;;;;;;14.82;2.67;;;11.50;95.30;;;;;;6271866;28;20246;-89
2023/11/04 15:46:35;;;;;;;12.18;2.10;;;11.50;94.80;;;;;;6274437;28;20516;-88
2023/11/04 15:49:36;;;;;;;14.00;2.45;;;11.60;93.70;;;;;;6274590;28;20338;-92
2023/11/04 15:52:38;;;;;;;12.60;2.60;;;11.60;92.90;;;;;;6275940;28;20064;-87